Latest Conditions
At L.F.Wade Int. Airport
Recorded at 10:55 pm
Few Clouds
Temp.: 
24°C/76°F
Humidity: 
77%
Wind: 
NNE 8KT
or 9mph
UV Index: 
0
Island Observations
 
Observations
Sunday, October 24, 2021

Observations are in local time and taken at least once an hour, or upon the start and end of specified events such as showers and thunderstorms.

Time Sky / Weather Wind Speed/Gusts Temp. R.H. Pressure
     knots (mph)  °C (°F)  %  mb / "Hg
 22:55 Few Clouds  NNE 8/0 (9/0) 24(76) 77 1023 / 30.22
 21:55 Few Clouds  N 6/0 (7/0) 25(76) 72 1023 / 30.21
 20:55 Few Clouds  N 5/0 (6/0) 24(76) 76 1022 / 30.19
 19:55 Few Clouds  NNE 4/0 (5/0) 24(76) 81 1022 / 30.17
 18:55 Few Clouds  NNE 4/0 (5/0) 25(76) 81 1021 / 30.16
 17:55 Partly Cloudy  N 6/0 (7/0) 26(78) 73 1021 / 30.15
 16:55 Mostly Cloudy  N 6/0 (7/0) 26(79) 73 1021 / 30.14
 15:55 Few Clouds  NNW 6/0 (7/0) 27(80) 70 1020 / 30.13
 14:55 Few Clouds  NNW 5/0 (6/0) 27(81) 71 1020 / 30.13
 13:55 Few Clouds  NW 7/0 (8/0) 27(81) 71 1020 / 30.13
 12:55 Partly Cloudy  N 6/0 (7/0) 26(80) 74 1021 / 30.14
 11:55 Partly Cloudy  N 5/0 (6/0) 27(80) 72 1021 / 30.15
 10:55 Mostly Cloudy  NNW 5/0 (6/0) 26(79) 73 1021 / 30.14
 09:55 Mostly Cloudy  N 6/0 (7/0) 26(78) 76 1020 / 30.13
 08:55 Partly Cloudy  NNW 4/0 (5/0) 25(78) 81 1019 / 30.10
 07:55 Few Clouds  NNW 4/0 (5/0) 24(76) 83 1018 / 30.07
 06:55 Partly Cloudy  NNW 6/0 (7/0) 24(76) 85 1018 / 30.06
 05:55 Mostly Cloudy  NW 8/0 (9/0) 24(76) 85 1018 / 30.05
 04:55 Mostly Cloudy  W 9/0 (10/0) 24(75) 81 1017 / 30.03
 04:18 Mostly Cloudy Showers WSW 8/0 (9/0) 25(76) 91 1017 / 30.04
 03:55 Mostly Cloudy Showers SW 7/0 (8/0) 25(76) 91 1017 / 30.04
 02:55 Mostly Cloudy Showers SW 5/0 (6/0) 24(76) 92 1017 / 30.04
 02:17 Mostly Cloudy Showers SW 5/0 (6/0) 24(75) 88 1017 / 30.04
 01:59 Mostly Cloudy Showers WSW 7/0 (8/0) 23(73) 92 1017 / 30.04
 01:55 Mostly Cloudy Showers WSW 8/0 (9/0) 23(74) 93 1017 / 30.04
 00:55 Mostly Cloudy Showers SW 8/0 (9/0) 24(76) 87 1017 / 30.04
 23:55 Mostly Cloudy Showers SW 8/0 (9/0) 25(77) 85 1017 / 30.04
 22:55 Mostly Cloudy Showers SSW 7/0 (8/0) 25(76) 87 1017 / 30.04
 21:55 Mostly Cloudy  SW 8/0 (9/0) 25(76) 87 1017 / 30.04
 20:55 Mostly Cloudy  SSW 8/0 (9/0) 25(76) 86 1017 / 30.03
 19:55 Overcast Showers SW 11/0 (13/0) 25(77) 82 1017 / 30.03
 19:48 Overcast Showers SW 10/0 (12/0) 25(77) 82 1017 / 30.03
 19:35 Overcast Showers SW 11/0 (13/0) 25(77) 81 1017 / 30.04
 18:55 Overcast  SSW 11/0 (13/0) 25(77) 82 1017 / 30.03
 18:07 Mostly Cloudy  SSW 12/0 (14/0) 25(77) 79 1016 / 30.01
 17:55 Mostly Cloudy  SSW 13/0 (15/0) 25(77) 78 1016 / 30.01
 16:55 Mostly Cloudy  S 15/0 (17/0) 25(77) 76 1016 / 30.01
 15:55 Mostly Cloudy  S 17/0 (20/0) 25(77) 79 1016 / 30.01
 14:55 Mostly Cloudy  S 18/0 (21/0) 26(78) 75 1017 / 30.04
 13:55 Mostly Cloudy  S 12/0 (14/0) 26(78) 75 1017 / 30.04
 12:55 Mostly Cloudy  S 15/0 (17/0) 25(77) 78 1017 / 30.04
 11:55 Mostly Cloudy  S 17/0 (20/0) 24(76) 76 1018 / 30.06
 10:55 Mostly Cloudy Showers S 19/0 (22/0) 24(76) 81 1018 / 30.07
 10:37 Mostly Cloudy Showers S 15/25 (17/29) 24(76) 76 1019 / 30.08
 10:14 Mostly Cloudy Showers S 14/0 (16/0) 24(76) 85 1019 / 30.09
 09:55 Mostly Cloudy Rain S 12/0 (14/0) 24(76) 77 1019 / 30.10
 09:05 Mostly Cloudy Showers SSW 12/0 (14/0) 23(74) 86 1019 / 30.10
 08:55 Mostly Cloudy Showers S 12/0 (14/0) 23(73) 88 1019 / 30.09
 08:07 Mostly Cloudy Showers S 8/0 (9/0) 22(72) 90 1019 / 30.10
 07:55 Mostly Cloudy Showers SSE 10/0 (12/0) 22(71) 92 1019 / 30.09
 07:20 Overcast Showers S 19/0 (22/0) 22(71) 91 1020 / 30.12
 07:06 Overcast Showers SSW 15/0 (17/0) 22(71) 88 1020 / 30.12
 06:55 Overcast Showers S 5/0 (6/0) 21(70) 92 1020 / 30.11
 06:15 Overcast Thunderstorm S 14/0 (16/0) 21(70) 94 1020 / 30.12
 06:05 Overcast Thunderstorm SSW 10/0 (12/0) 21(70) 94 1020 / 30.12
 05:55 Overcast Thunderstorm SW 6/0 (7/0) 21(69) 97 1020 / 30.12
 05:34 Overcast Thunderstorm SW 14/0 (16/0) 20(68) 97 1020 / 30.12
 05:24 Overcast Thunderstorm SW 15/0 (17/0) 20(68) 98 1021 / 30.14
 05:14 Overcast Thunderstorm SW 25/40 (29/46) 21(70) 97 1020 / 30.12
 05:06 Overcast Thunderstorm WSW 15/32 (17/37) 21(70) 94 1020 / 30.11
 05:01 Overcast Thunderstorm WSW 11/0 (13/0) 23(73) 87 1020 / 30.11
 04:55 Overcast Thunderstorm SSE 11/0 (13/0) 24(74) 86 1019 / 30.09
 04:28 Overcast Thunderstorm S 11/0 (13/0) 23(74) 86 1019 / 30.08
 04:17 Overcast Thunderstorm SSE 13/0 (15/0) 24(74) 86 1019 / 30.08
 04:10 Overcast Thunderstorm SE 12/0 (14/0) 24(75) 87 1018 / 30.07
 03:59 Overcast Thunderstorm SE 13/0 (15/0) 24(76) 91 1019 / 30.08
 03:55 Overcast Thunderstorm SE 12/0 (14/0) 25(77) 87 1019 / 30.09
 03:38 Overcast Showers ESE 12/0 (14/0) 25(77) 90 1019 / 30.09
 03:24 Overcast Thunderstorm SE 11/0 (13/0) 24(76) 89 1019 / 30.08
 03:09 Overcast Thunderstorm ESE 11/0 (13/0) 24(75) 88 1019 / 30.09
 02:55 Overcast Thunderstorm ESE 14/0 (16/0) 24(75) 85 1020 / 30.11
 02:37 Overcast Thunderstorm SE 12/0 (14/0) 24(75) 86 1020 / 30.12
 02:12 Overcast Thunderstorm SE 11/0 (13/0) 25(77) 84 1020 / 30.11
 02:04 Overcast Showers SE 12/0 (14/0) 25(77) 85 1019 / 30.10
 01:55 Overcast Showers SE 13/0 (15/0) 25(77) 83 1020 / 30.11
 01:32 Overcast  SE 12/0 (14/0) 25(77) 83 1020 / 30.12
 00:55 Overcast  ESE 12/0 (14/0) 25(77) 81 1020 / 30.12
 23:55 Mostly Cloudy  SE 10/0 (12/0) 25(77) 80 1021 / 30.15
 22:55 Mostly Cloudy  SE 10/0 (12/0) 25(77) 77 1022 / 30.17
 21:55 Few Clouds  ESE 8/0 (9/0) 24(76) 79 1022 / 30.17
 20:55 Mostly Cloudy  ESE 11/0 (13/0) 24(76) 77 1022 / 30.17
 19:55 Mostly Cloudy  ESE 10/0 (12/0) 24(76) 78 1022 / 30.17
 18:55 Mostly Cloudy  SE 8/0 (9/0) 24(76) 70 1022 / 30.17
 17:55 Mostly Cloudy  SE 9/0 (10/0) 24(76) 73 1022 / 30.18
 16:55 Mostly Cloudy  SE 12/0 (14/0) 25(78) 66 1022 / 30.18
 15:55 Mostly Cloudy  SE 11/0 (13/0) 26(78) 64 1022 / 30.18
 14:55 Mostly Cloudy  SE 11/0 (13/0) 26(78) 62 1022 / 30.18
 13:55 Mostly Cloudy  SE 11/0 (13/0) 26(79) 58 1023 / 30.20
 12:55 Mostly Cloudy  SE 13/0 (15/0) 26(79) 56 1024 / 30.23
 11:55 Partly Cloudy  SSE 10/0 (12/0) 26(79) 52 1024 / 30.25
 10:55 Few Clouds  SSE 8/0 (9/0) 26(79) 51 1024 / 30.25
 09:55 Mostly Cloudy  SE 8/0 (9/0) 25(78) 52 1024 / 30.25
 08:55 Mostly Cloudy  SE 9/0 (10/0) 25(76) 54 1024 / 30.23
 07:55 Mostly Cloudy  ESE 7/0 (8/0) 24(74) 55 1023 / 30.22
 06:55 Mostly Cloudy  ESE 8/0 (9/0) 24(74) 53 1023 / 30.21
 05:55 Mostly Cloudy  SE 6/0 (7/0) 24(74) 59 1023 / 30.20
 04:55 Mostly Cloudy  SE 6/0 (7/0) 23(74) 61 1023 / 30.21
 03:55 Partly Cloudy  SE 7/0 (8/0) 24(74) 60 1023 / 30.21
 02:55 Partly Cloudy  SE 7/0 (8/0) 24(74) 58 1023 / 30.21
 01:55 Partly Cloudy  SE 6/0 (7/0) 24(74) 56 1024 / 30.23
Island AWOS